createdAt,value
2022-08-18T05:17:45.441Z,38.20
2022-08-18T05:22:52.374Z,36.65
2022-08-18T05:27:57.228Z,40.80
2022-08-18T05:33:01.400Z,36.78
2022-08-18T05:38:43.647Z,39.10
2022-08-18T05:43:52.547Z,41.72
2022-08-18T05:48:54.682Z,36.65
2022-08-18T05:54:15.623Z,38.70
2022-08-18T05:59:34.623Z,35.67
2022-08-18T06:04:56.383Z,35.85
2022-08-18T06:09:58.686Z,39.35
2022-08-18T06:15:10.545Z,36.10
2022-08-18T06:20:43.522Z,35.08
2022-08-18T06:26:23.714Z,35.50
2022-08-18T06:31:57.920Z,33.78
2022-08-18T06:37:58.555Z,34.92
2022-08-18T06:43:02.211Z,30.73
2022-08-18T06:48:20.442Z,35.17
2022-08-18T06:53:27.957Z,27.83
2022-08-18T06:58:31.408Z,27.88
2022-08-18T07:03:39.440Z,25.85
2022-08-18T07:08:44.774Z,24.73
2022-08-18T07:14:09.124Z,24.83
2022-08-18T07:19:21.269Z,27.77
2022-08-18T07:24:32.896Z,27.60
2022-08-18T07:29:42.168Z,26.40
2022-08-18T07:34:53.527Z,20.52
2022-08-18T07:40:03.625Z,21.77
2022-08-18T07:45:18.371Z,21.00
2022-08-18T07:50:57.502Z,18.00
2022-08-18T07:55:59.708Z,15.35
2022-08-18T08:01:29.721Z,18.88
2022-08-18T08:07:20.341Z,14.98
2022-08-18T08:12:48.056Z,14.98
2022-08-18T08:18:21.033Z,13.55
2022-08-18T08:24:01.022Z,14.00
2022-08-18T08:29:34.903Z,13.38
2022-08-18T08:35:00.027Z,15.32
2022-08-18T08:40:13.786Z,14.55
2022-08-18T08:45:25.513Z,10.55
2022-08-18T08:50:34.520Z,11.20
2022-08-18T08:55:45.807Z,11.82
2022-08-18T09:00:51.720Z,14.55
2022-08-18T09:05:59.534Z,18.30
2022-08-18T09:11:49.534Z,29.88
2022-08-18T09:17:33.940Z,15.55
2022-08-18T09:23:02.058Z,15.65
2022-08-18T09:28:12.354Z,12.18
2022-08-18T09:33:38.496Z,17.80
2022-08-18T09:39:25.060Z,20.85
2022-08-18T09:44:49.599Z,18.30
2022-08-18T09:49:56.525Z,14.55
2022-08-18T09:55:30.120Z,9.60
2022-08-18T10:00:33.647Z,10.73
2022-08-18T10:05:35.948Z,13.98
2022-08-18T10:11:20.546Z,13.52
2022-08-18T10:17:21.323Z,9.82
2022-08-18T10:22:44.412Z,11.63
2022-08-18T10:27:56.119Z,12.63
2022-08-18T10:33:01.068Z,10.50
2022-08-18T10:38:22.495Z,8.98
2022-08-18T10:43:45.766Z,9.90
2022-08-18T10:49:10.590Z,10.07
2022-08-18T10:54:51.743Z,8.23
2022-08-18T11:00:11.941Z,8.65
2022-08-18T11:05:25.110Z,7.18
2022-08-18T11:11:27.702Z,6.90
2022-08-18T11:16:45.948Z,8.00
2022-08-18T11:21:51.730Z,6.57
2022-08-18T11:27:09.644Z,7.45
2022-08-18T11:32:31.177Z,8.45
2022-08-18T11:37:59.901Z,8.65
2022-08-18T11:43:10.812Z,8.75
2022-08-18T11:48:20.823Z,9.70
2022-08-18T11:53:55.547Z,10.13
2022-08-18T11:59:05.677Z,9.40
2022-08-18T12:04:13.756Z,9.88
2022-08-18T12:15:43.783Z,13.75
2022-08-18T12:20:51.242Z,8.48
2022-08-18T12:25:54.748Z,8.02
2022-08-18T12:30:57.594Z,11.20
2022-08-18T12:36:00.372Z,9.35
2022-08-18T12:41:03.198Z,10.18
2022-08-18T12:46:08.347Z,10.05
2022-08-18T12:51:14.282Z,10.25
2022-08-18T12:56:31.794Z,9.10
2022-08-18T13:01:36.373Z,11.18
2022-08-18T13:06:59.538Z,12.02
2022-08-18T13:12:03.979Z,11.30
2022-08-18T13:17:08.253Z,8.63
2022-08-18T13:22:13.667Z,9.65
2022-08-18T13:27:23.277Z,12.43
2022-08-18T13:32:26.058Z,14.15
2022-08-18T13:37:30.611Z,9.10
2022-08-18T13:42:50.594Z,10.23
2022-08-18T13:47:53.253Z,10.25
2022-08-18T13:53:02.910Z,9.27
2022-08-18T13:58:17.390Z,8.93
2022-08-18T14:03:42.110Z,9.65
2022-08-18T14:08:44.957Z,11.57
2022-08-18T14:13:48.885Z,10.35
2022-08-18T14:19:10.652Z,10.30
2022-08-18T14:29:45.570Z,10.68
2022-08-18T14:34:50.593Z,10.03
2022-08-18T14:39:54.029Z,9.80
2022-08-18T14:45:17.048Z,10.45
2022-08-18T14:50:21.397Z,9.25
2022-08-18T14:55:27.642Z,10.77
2022-08-18T15:00:31.460Z,8.23
2022-08-18T15:05:34.366Z,7.53
2022-08-18T15:10:36.873Z,6.35
2022-08-18T15:15:42.247Z,10.45
2022-08-18T15:21:35.797Z,10.88
2022-08-18T15:26:34.622Z,10.63
2022-08-18T15:31:57.937Z,10.75
2022-08-18T15:37:09.596Z,12.38
2022-08-18T15:42:12.949Z,14.82
2022-08-18T15:47:20.782Z,14.05
2022-08-18T15:52:25.942Z,13.63
2022-08-18T15:57:38.965Z,9.60
2022-08-18T16:03:03.906Z,11.82
2022-08-18T16:08:11.872Z,14.48
2022-08-18T16:13:14.786Z,12.82
2022-08-18T16:18:20.845Z,12.60
2022-08-18T16:23:22.833Z,15.55
2022-08-18T16:28:34.856Z,15.57
2022-08-18T16:33:37.180Z,15.15
2022-08-18T16:38:39.489Z,17.25
2022-08-18T16:43:44.247Z,12.10
2022-08-18T16:48:46.204Z,10.15
2022-08-18T16:53:52.162Z,12.82
2022-08-18T16:59:13.462Z,12.55
2022-08-18T17:04:22.657Z,12.50
2022-08-18T17:09:25.202Z,12.70
2022-08-18T17:14:30.359Z,12.30
2022-08-18T17:19:34.748Z,12.02
2022-08-18T17:24:37.703Z,12.50
2022-08-18T17:29:58.601Z,13.25
2022-08-18T17:35:09.569Z,7.95
2022-08-18T17:40:25.124Z,9.03
2022-08-18T17:45:35.001Z,9.32
2022-08-18T17:51:06.470Z,8.77
2022-08-18T17:56:22.851Z,8.73
2022-08-18T18:01:38.021Z,9.93
2022-08-18T18:06:43.466Z,9.63
2022-08-18T18:11:51.503Z,12.60
2022-08-18T18:17:20.653Z,8.25
2022-08-18T18:22:29.968Z,8.68
2022-08-18T18:27:48.473Z,9.90
2022-08-18T18:32:59.260Z,15.20
2022-08-18T18:38:30.463Z,9.20
2022-08-18T18:43:39.461Z,10.07
2022-08-18T18:49:19.404Z,11.25
2022-08-18T18:55:04.329Z,10.40
2022-08-18T19:00:23.246Z,9.77
2022-08-18T19:05:54.627Z,9.60
2022-08-18T19:11:29.054Z,9.10
2022-08-18T19:16:41.890Z,11.18
2022-08-18T19:22:03.298Z,11.70
2022-08-18T19:27:23.297Z,10.27
2022-08-18T19:32:39.313Z,10.43
2022-08-18T19:38:04.446Z,14.15
2022-08-18T19:43:36.907Z,13.90
2022-08-18T19:54:10.931Z,11.75
2022-08-18T19:59:34.994Z,16.45
2022-08-18T20:05:29.238Z,12.60
2022-08-18T20:11:06.248Z,11.50
2022-08-18T20:16:11.118Z,12.00
2022-08-18T20:21:20.214Z,15.25
2022-08-18T20:26:39.760Z,11.73
2022-08-18T20:32:00.116Z,14.20
2022-08-18T20:37:09.447Z,13.20
2022-08-18T20:42:24.558Z,12.52
2022-08-18T20:47:55.196Z,15.05
2022-08-18T20:53:32.714Z,14.40
2022-08-18T20:58:43.023Z,16.55
2022-08-18T21:03:46.325Z,16.42
